Time;durP1;ratioP1;P1;durP2;ratioP2;P2;SDS_P1;SDS_P2;PMS_P1;PMS_P2;Temp;Humidity;BMP_temperature;BMP_pressure;BME280_temperature;BME280_humidity;BME280_pressure;Samples;Min_cycle;Max_cycle;Signal;HPM_P1;HPM_P2
2024/04/14 00:00:11;;;;;;;4.40;4.00;;;;;;;12.26;64.95;94254.03;562950;26;865;-69
2024/04/14 00:00:27;;;;;;;3.97;3.57;;;;;;;12.27;64.99;94257.53;564694;26;1064;-73
2024/04/14 00:00:43;;;;;;;3.60;3.30;;;;;;;12.28;64.98;94256.28;569471;26;916;-71
2024/04/14 00:00:59;;;;;;;3.75;3.20;;;;;;;12.13;64.84;94243.03;570696;26;913;-71
2024/04/14 00:01:14;;;;;;;5.80;3.70;;;;;;;12.29;64.71;94266.81;570273;26;1170;-71
2024/04/14 00:01:30;;;;;;;5.67;3.90;;;;;;;12.30;64.84;94259.97;570677;26;811;-71
2024/04/14 00:01:45;;;;;;;4.25;3.85;;;;;;;12.30;64.99;94257.19;570717;26;843;-71
2024/04/14 00:02:01;;;;;;;4.50;4.10;;;;;;;12.31;64.73;94257.94;570762;26;926;-71
2024/04/14 00:02:16;;;;;;;4.63;3.88;;;;;;;12.32;64.67;94262.22;570762;26;795;-72
2024/04/14 00:02:32;;;;;;;4.23;3.53;;;;;;;12.31;64.18;94257.94;570762;26;771;-72
2024/04/14 00:02:47;;;;;;;3.90;3.60;;;;;;;12.31;64.04;94261.47;567943;26;2004;-71
2024/04/14 00:03:03;;;;;;;4.47;3.70;;;;;;;12.31;64.32;94257.94;567446;26;864;-71
2024/04/14 00:03:18;;;;;;;5.40;4.07;;;;;;;12.31;64.31;94261.47;566926;26;845;-71
2024/04/14 00:03:33;;;;;;;4.40;3.90;;;;;;;12.31;63.85;94260.72;566977;26;791;-71
2024/04/14 00:03:56;;;;;;;4.20;3.80;;;;;;;12.12;64.07;94236.75;569522;26;912;-73
2024/04/14 00:04:12;;;;;;;4.13;3.72;;;;;;;12.28;64.05;94259.78;570570;26;865;-72
2024/04/14 00:04:27;;;;;;;4.60;4.10;;;;;;;12.23;64.29;94262.69;570296;26;1172;-71
2024/04/14 00:04:48;;;;;;;4.93;4.20;;;;;;;12.14;64.83;94264.66;570552;26;832;-72
2024/04/14 00:05:04;;;;;;;4.30;3.90;;;;;;;11.96;64.39;94246.19;566951;26;952;-72
2024/04/14 00:05:20;;;;;;;4.32;3.92;;;;;;;11.97;64.54;94264.28;567058;26;2034;-71
2024/04/14 00:05:35;;;;;;;4.87;4.20;;;;;;;11.91;64.27;94268.47;568686;26;901;-72
2024/04/14 00:05:51;;;;;;;5.05;4.18;;;;;;;11.83;64.75;94262.84;569688;26;883;-73
2024/04/14 00:06:06;;;;;;;4.23;3.83;;;;;;;11.82;64.29;94261.38;567518;26;1250;-71
2024/04/14 00:06:22;;;;;;;4.20;3.80;;;;;;;11.81;64.72;94256.34;569721;26;995;-71
2024/04/14 00:06:38;;;;;;;4.13;3.72;;;;;;;11.81;64.68;94259.88;566909;26;897;-71
2024/04/14 00:06:53;;;;;;;4.23;3.83;;;;;;;11.82;64.61;94255.09;569166;26;927;-70
2024/04/14 00:07:11;;;;;;;4.72;4.20;;;;;;;11.83;64.37;94257.31;570557;26;890;-70
2024/04/14 00:07:26;;;;;;;4.93;4.20;;;;;;;11.85;64.65;94257.50;569593;26;978;-71
2024/04/14 00:07:42;;;;;;;5.07;4.25;;;;;;;11.87;64.14;94254.19;567134;26;1285;-71
2024/04/14 00:07:57;;;;;;;4.80;3.93;;;;;;;11.88;64.28;94250.16;570585;26;966;-71
2024/04/14 00:08:12;;;;;;;4.53;3.83;;;;;;;11.89;64.48;94257.91;570675;26;822;-71
2024/04/14 00:08:28;;;;;;;4.73;4.27;;;;;;;11.90;64.24;94259.41;570652;26;798;-71
2024/04/14 00:08:43;;;;;;;5.30;4.30;;;;;;;11.86;64.49;94252.72;570705;26;932;-71
2024/04/14 00:08:59;;;;;;;5.40;4.05;;;;;;;11.84;64.59;94256.03;570525;26;897;-71
2024/04/14 00:09:14;;;;;;;5.00;4.27;;;;;;;11.84;64.51;94255.28;570688;26;940;-71
2024/04/14 00:09:30;;;;;;;5.45;4.50;;;;;;;11.80;64.53;94255.59;568003;26;1805;-71
2024/04/14 00:09:45;;;;;;;6.03;4.30;;;;;;;11.80;64.39;94252.84;567904;26;906;-71
2024/04/14 00:10:01;;;;;;;5.90;4.05;;;;;;;11.81;64.66;94248.81;567575;26;874;-71
2024/04/14 00:10:16;;;;;;;4.83;4.03;;;;;;;11.82;64.93;94249.56;566690;26;843;-71
2024/04/14 00:10:32;;;;;;;4.57;4.18;;;;;;;11.82;64.45;94250.31;566768;26;1246;-71
2024/04/14 00:10:47;;;;;;;4.27;3.87;;;;;;;11.84;64.25;94247.75;570155;26;952;-71
2024/04/14 00:11:03;;;;;;;4.32;3.80;;;;;;;11.81;64.33;94245.28;567750;26;1166;-71
2024/04/14 00:11:19;;;;;;;4.53;4.03;;;;;;;11.86;64.70;94252.72;570483;26;810;-70
2024/04/14 00:11:34;;;;;;;4.60;3.78;;;;;;;11.86;64.30;94255.50;568019;26;946;-70
2024/04/14 00:11:50;;;;;;;5.32;3.65;;;;;;;11.87;64.38;94254.94;568026;26;931;-70
2024/04/14 00:12:05;;;;;;;5.20;3.97;;;;;;;11.88;64.57;94258.47;570824;26;1074;-71
2024/04/14 00:12:21;;;;;;;4.80;4.30;;;;;;;11.86;64.47;94247.94;570542;26;960;-70
2024/04/14 00:12:36;;;;;;;6.53;4.50;;;;;;;11.88;64.59;94256.44;570554;26;1198;-70
2024/04/14 00:12:52;;;;;;;6.82;4.47;;;;;;;11.90;64.06;94258.66;570729;26;934;-70
2024/04/14 00:13:07;;;;;;;5.97;4.07;;;;;;;11.88;64.53;94258.47;570728;26;810;-69
2024/04/14 00:13:23;;;;;;;5.57;3.77;;;;;;;11.86;64.76;94256.25;570708;26;1855;-69
2024/04/14 00:13:38;;;;;;;4.95;3.67;;;;;;;11.83;64.53;94257.31;567782;26;2095;-69
2024/04/14 00:13:54;;;;;;;4.80;3.87;;;;;;;11.82;64.78;94255.84;570056;26;810;-69
2024/04/14 00:14:09;;;;;;;4.20;3.80;;;;;;;11.81;64.69;94251.56;568332;26;1338;-69
2024/04/14 00:14:26;;;;;;;4.23;3.83;;;;;;;11.82;64.88;94261.38;570668;26;929;-69
2024/04/14 00:14:41;;;;;;;5.22;4.25;;;;;;;11.82;64.68;94257.84;567490;26;885;-69
2024/04/14 00:14:56;;;;;;;4.47;4.07;;;;;;;11.76;65.07;94260.72;570106;26;994;-69
2024/04/14 00:15:12;;;;;;;4.65;4.25;;;;;;;11.70;64.83;94254.59;570581;26;842;-69
2024/04/14 00:15:27;;;;;;;4.90;4.40;;;;;;;11.64;64.93;94255.97;570652;26;830;-69
2024/04/14 00:15:43;;;;;;;6.00;4.03;;;;;;;11.61;65.36;94254.28;568367;26;1329;-69
2024/04/14 00:16:00;;;;;;;6.27;3.87;;;;;;;11.57;65.48;94254.59;570546;26;887;-70
2024/04/14 00:16:15;;;;;;;5.15;4.15;;;;;;;11.56;65.49;94249.59;568611;26;2075;-69
2024/04/14 00:16:31;;;;;;;4.60;4.10;;;;;;;11.55;65.31;94248.84;569285;26;992;-69
2024/04/14 00:16:46;;;;;;;4.35;3.95;;;;;;;11.55;65.46;94256.41;568742;26;937;-69
2024/04/14 00:17:02;;;;;;;4.53;4.13;;;;;;;11.53;65.64;94253.44;567018;26;842;-69
2024/04/14 00:17:17;;;;;;;4.63;4.22;;;;;;;11.50;65.63;94260.78;566735;26;940;-69
2024/04/14 00:17:33;;;;;;;4.77;4.17;;;;;;;11.50;65.88;94255.25;569892;26;1333;-69
2024/04/14 00:17:48;;;;;;;4.90;4.20;;;;;;;11.51;65.64;94259.50;570649;26;916;-69
2024/04/14 00:18:04;;;;;;;4.77;4.27;;;;;;;11.53;65.83;94256.94;570727;26;929;-69
2024/04/14 00:18:19;;;;;;;4.47;4.05;;;;;;;11.55;65.56;94257.16;568781;26;891;-69
2024/04/14 00:18:35;;;;;;;4.43;4.00;;;;;;;11.58;65.58;94255.34;566921;26;869;-70
2024/04/14 00:18:50;;;;;;;4.50;3.75;;;;;;;11.58;65.27;94250.56;567056;26;1780;-69
2024/04/14 00:19:06;;;;;;;4.73;4.00;;;;;;;11.60;65.48;94250.00;567492;26;1208;-69
2024/04/14 00:19:21;;;;;;;4.85;4.18;;;;;;;11.62;65.61;94256.50;566654;26;942;-69
2024/04/14 00:19:37;;;;;;;5.20;4.50;;;;;;;11.62;65.37;94259.28;566873;26;960;-69
2024/04/14 00:19:53;;;;;;;5.20;4.40;;;;;;;11.64;65.54;94253.19;567948;26;817;-69
2024/04/14 00:20:11;;;;;;;4.77;4.13;;;;;;;11.65;65.40;94251.94;566874;26;866;-69
2024/04/14 00:20:26;;;;;;;5.07;4.28;;;;;;;11.66;65.25;94250.63;566718;26;897;-69
2024/04/14 00:20:42;;;;;;;5.13;4.20;;;;;;;11.68;65.38;94248.09;566199;26;1910;-70
2024/04/14 00:20:57;;;;;;;6.13;4.20;;;;;;;11.68;65.50;94248.84;568135;26;946;-69
2024/04/14 00:21:13;;;;;;;5.93;4.07;;;;;;;11.58;65.70;94235.97;566911;26;1047;-69
2024/04/14 00:21:29;;;;;;;5.95;3.83;;;;;;;11.64;65.86;94247.66;566735;26;906;-70
2024/04/14 00:21:45;;;;;;;5.70;4.05;;;;;;;11.56;65.98;94246.84;569031;26;881;-69
2024/04/14 00:22:00;;;;;;;4.77;4.03;;;;;;;11.51;66.16;94250.47;570541;26;1246;-69
2024/04/14 00:22:17;;;;;;;4.43;4.00;;;;;;;11.47;66.41;94250.03;569111;26;1235;-69
2024/04/14 00:22:32;;;;;;;4.68;4.15;;;;;;;11.41;66.68;94250.19;566744;26;949;-69
2024/04/14 00:22:47;;;;;;;5.00;4.25;;;;;;;11.38;66.41;94254.00;567775;26;949;-69
2024/04/14 00:23:03;;;;;;;4.73;4.17;;;;;;;11.38;66.33;94249.22;570731;26;791;-69
2024/04/14 00:23:19;;;;;;;4.60;4.10;;;;;;;11.40;66.45;94251.44;570756;26;845;-69
2024/04/14 00:23:34;;;;;;;4.57;3.70;;;;;;;11.42;66.54;94254.41;568777;26;1999;-69
2024/04/14 00:23:52;;;;;;;3.90;3.45;;;;;;;11.43;66.22;94251.09;568475;26;1273;-69
2024/04/14 00:24:08;;;;;;;4.15;3.75;;;;;;;11.44;65.96;94255.38;567778;26;867;-69
2024/04/14 00:24:23;;;;;;;4.13;3.73;;;;;;;11.43;65.70;94247.63;566795;26;869;-69
2024/04/14 00:24:38;;;;;;;3.58;3.28;;;;;;;11.42;65.38;94254.41;566717;26;931;-69
2024/04/14 00:24:55;;;;;;;3.40;3.00;;;;;;;11.44;65.15;94257.38;569336;26;782;-69
2024/04/14 00:25:11;;;;;;;4.47;3.40;;;;;;;11.43;65.24;94253.88;568693;26;1453;-69
2024/04/14 00:25:26;;;;;;;4.55;3.60;;;;;;;11.46;65.00;94252.06;568412;26;1264;-69
2024/04/14 00:25:42;;;;;;;4.00;3.50;;;;;;;11.46;65.17;94246.53;568390;26;837;-69
2024/04/14 00:25:58;;;;;;;4.35;3.63;;;;;;;11.42;65.34;94249.63;570189;26;892;-70
2024/04/14 00:26:13;;;;;;;3.97;3.57;;;;;;;11.36;65.42;94246.25;570505;26;941;-69
2024/04/14 00:26:29;;;;;;;3.80;3.40;;;;;;;11.31;65.15;94249.13;570483;26;901;-69
2024/04/14 00:26:48;;;;;;;3.53;3.10;;;;;;;11.26;65.30;94247.94;570768;26;841;-69
2024/04/14 00:27:04;;;;;;;3.33;3.00;;;;;;;11.25;65.26;94252.00;566882;26;1351;-69
2024/04/14 00:27:19;;;;;;;3.60;3.30;;;;;;;11.25;65.61;94245.72;570629;26;876;-69
2024/04/14 00:27:35;;;;;;;3.90;3.60;;;;;;;11.26;65.25;94250.72;570626;26;885;-69
2024/04/14 00:27:50;;;;;;;4.13;3.70;;;;;;;11.16;65.55;94237.88;570578;26;879;-69
2024/04/14 00:28:06;;;;;;;4.75;3.85;;;;;;;11.26;65.66;94253.47;568553;26;1962;-69
2024/04/14 00:28:23;;;;;;;5.10;3.77;;;;;;;11.27;65.68;94254.97;569506;26;867;-69
2024/04/14 00:28:38;;;;;;;3.90;3.42;;;;;;;11.29;65.32;94254.44;567739;26;854;-69
2024/04/14 00:28:54;;;;;;;3.47;3.03;;;;;;;11.29;65.34;94260.72;569791;26;1075;-69
2024/04/14 00:29:09;;;;;;;3.97;3.13;;;;;;;11.30;64.93;94253.91;567830;26;910;-69
2024/04/14 00:29:25;;;;;;;3.67;3.38;;;;;;;11.31;64.97;94249.13;566933;26;814;-69
2024/04/14 00:29:40;;;;;;;3.37;3.07;;;;;;;11.29;65.14;94254.44;566878;26;960;-69
2024/04/14 00:29:56;;;;;;;3.70;3.10;;;;;;;11.27;64.72;94254.22;569337;26;1297;-70
2024/04/14 00:30:11;;;;;;;4.63;3.30;;;;;;;11.25;64.71;94256.78;562357;26;2525;-69
2024/04/14 00:30:27;;;;;;;4.30;3.43;;;;;;;11.24;64.77;94249.78;563159;26;1633;-69
2024/04/14 00:30:42;;;;;;;3.60;3.30;;;;;;;11.19;65.22;94248.63;564985;26;940;-69
2024/04/14 00:30:58;;;;;;;3.30;3.00;;;;;;;11.10;64.77;94248.28;564839;26;1949;-69
2024/04/14 00:31:13;;;;;;;3.75;3.45;;;;;;;11.06;65.30;94251.41;563008;26;1857;-69
2024/04/14 00:31:29;;;;;;;4.07;3.77;;;;;;;11.02;65.15;94258.50;560294;26;1388;-69
2024/04/14 00:31:44;;;;;;;4.28;3.70;;;;;;;10.98;65.61;94250.53;559987;26;2071;-70
2024/04/14 00:31:59;;;;;;;4.00;3.30;;;;;;;10.97;65.71;94259.34;562297;26;1994;-69
2024/04/14 00:32:15;;;;;;;3.50;3.20;;;;;;;10.95;65.95;94256.38;564212;26;2383;-69
2024/04/14 00:32:30;;;;;;;3.70;3.40;;;;;;;10.91;66.00;94256.72;564623;26;1799;-69
2024/04/14 00:32:47;;;;;;;3.30;3.00;;;;;;;10.90;66.45;94257.22;566637;26;1068;-70
2024/04/14 00:33:02;;;;;;;3.70;3.40;;;;;;;10.89;66.68;94262.03;566503;26;909;-69
2024/04/14 00:33:18;;;;;;;4.40;3.63;;;;;;;10.90;66.66;94254.47;566586;26;1241;-69
2024/04/14 00:33:35;;;;;;;3.90;3.25;;;;;;;10.90;66.44;94255.22;566673;26;1834;-69
2024/04/14 00:33:51;;;;;;;3.80;3.50;;;;;;;10.91;66.54;94253.19;568155;26;1911;-69
2024/04/14 00:34:10;;;;;;;4.30;3.60;;;;;;;10.94;66.66;94260.41;567841;26;925;-69
2024/04/14 00:34:25;;;;;;;4.25;3.50;;;;;;;10.94;66.29;94258.41;570175;26;889;-69
2024/04/14 00:34:41;;;;;;;3.90;3.50;;;;;;;10.97;66.13;94251.81;570575;26;932;-69
2024/04/14 00:34:57;;;;;;;3.75;3.38;;;;;;;10.99;66.45;94254.03;568654;26;1126;-69
2024/04/14 00:35:13;;;;;;;4.30;3.40;;;;;;;11.00;66.15;94261.78;566537;26;1404;-71
2024/04/14 00:35:28;;;;;;;3.97;3.20;;;;;;;11.00;66.32;94266.59;566482;26;1262;-69
2024/04/14 00:35:44;;;;;;;4.10;3.43;;;;;;;11.02;66.21;94264.75;566621;26;912;-69
2024/04/14 00:35:59;;;;;;;4.53;3.42;;;;;;;10.91;66.45;94251.19;563396;26;900;-69
2024/04/14 00:36:15;;;;;;;5.27;3.60;;;;;;;11.05;66.28;94263.72;562942;26;962;-69
2024/04/14 00:36:30;;;;;;;5.57;3.65;;;;;;;11.06;65.99;94258.94;562865;26;814;-69
2024/04/14 00:36:46;;;;;;;6.90;3.57;;;;;;;11.08;66.04;94259.16;564661;26;1023;-69
2024/04/14 00:37:01;;;;;;;6.53;3.53;;;;;;;11.08;66.20;94262.66;566298;26;1345;-69
2024/04/14 00:37:17;;;;;;;4.17;3.47;;;;;;;11.11;65.87;94263.63;566689;26;811;-69
2024/04/14 00:37:32;;;;;;;3.83;3.38;;;;;;;11.11;65.87;94263.63;567532;26;2028;-69
2024/04/14 00:37:48;;;;;;;3.73;3.43;;;;;;;11.12;66.20;94265.09;569644;26;913;-69
2024/04/14 00:38:03;;;;;;;3.97;3.50;;;;;;;11.13;66.07;94266.59;567876;26;940;-69
2024/04/14 00:38:19;;;;;;;4.80;3.70;;;;;;;11.14;65.94;94262.53;566871;26;817;-69
2024/04/14 00:38:35;;;;;;;4.00;3.58;;;;;;;11.15;66.06;94264.03;566766;26;935;-69
2024/04/14 00:38:50;;;;;;;3.73;3.37;;;;;;;11.16;66.25;94259.97;569805;26;877;-69
2024/04/14 00:39:05;;;;;;;5.45;3.60;;;;;;;11.15;66.26;94269.56;570722;26;833;-69
2024/04/14 00:39:22;;;;;;;4.87;3.67;;;;;;;11.12;66.17;94259.56;570354;26;924;-69
2024/04/14 00:39:38;;;;;;;3.95;3.60;;;;;;;11.11;65.95;94260.84;567951;26;1160;-69
2024/04/14 00:39:53;;;;;;;3.70;3.33;;;;;;;11.10;66.13;94260.09;569874;26;829;-69
2024/04/14 00:40:09;;;;;;;4.17;3.37;;;;;;;11.09;66.17;94264.13;570175;26;786;-69
2024/04/14 00:40:24;;;;;;;4.07;3.40;;;;;;;11.11;65.87;94263.63;570314;26;882;-69
2024/04/14 00:40:40;;;;;;;3.90;3.50;;;;;;;11.06;66.26;94261.69;570244;26;826;-69
2024/04/14 00:40:56;;;;;;;3.90;3.28;;;;;;;11.12;66.27;94265.84;570338;26;995;-69
2024/04/14 00:41:12;;;;;;;3.58;3.10;;;;;;;11.11;66.15;94264.34;570292;26;888;-70
2024/04/14 00:41:27;;;;;;;3.90;3.50;;;;;;;11.11;66.24;94269.88;567854;26;1877;-69
2024/04/14 00:41:42;;;;;;;4.10;3.70;;;;;;;11.09;66.13;94263.38;568321;26;942;-69
2024/04/14 00:42:01;;;;;;;3.73;3.40;;;;;;;11.08;65.95;94276.47;567391;26;935;-69
2024/04/14 00:42:16;;;;;;;3.50;3.20;;;;;;;11.07;65.91;94266.69;566620;26;1084;-69
2024/04/14 00:42:32;;;;;;;3.30;3.00;;;;;;;11.08;66.04;94259.16;566588;26;986;-68
2024/04/14 00:42:47;;;;;;;3.33;2.80;;;;;;;11.09;65.90;94260.63;568673;26;780;-69
2024/04/14 00:43:03;;;;;;;3.88;3.08;;;;;;;11.09;65.88;94263.38;569476;26;1361;-69
2024/04/14 00:43:18;;;;;;;4.40;3.23;;;;;;;10.87;65.45;94234.16;570423;26;857;-69
2024/04/14 00:43:34;;;;;;;4.25;3.00;;;;;;;11.08;65.63;94264.66;567406;26;975;-69
2024/04/14 00:43:49;;;;;;;3.47;2.90;;;;;;;11.06;65.33;94265.22;569298;26;956;-70
2024/04/14 00:44:05;;;;;;;3.40;3.05;;;;;;;11.02;65.58;94258.50;568432;26;1817;-69
2024/04/14 00:44:20;;;;;;;3.30;3.00;;;;;;;11.00;65.36;94269.34;568651;26;1150;-69
2024/04/14 00:44:36;;;;;;;3.45;2.67;;;;;;;10.99;65.63;94263.06;568891;26;1115;-69
2024/04/14 00:44:52;;;;;;;2.97;2.63;;;;;;;11.00;65.12;94264.56;570283;26;1206;-69
2024/04/14 00:45:07;;;;;;;2.90;2.70;;;;;;;11.01;65.08;94268.06;570426;26;809;-69
2024/04/14 00:45:23;;;;;;;3.17;2.87;;;;;;;11.03;64.77;94266.25;570333;26;1069;-69
2024/04/14 00:45:38;;;;;;;3.35;3.05;;;;;;;11.03;64.88;94260.72;570171;26;909;-69
2024/04/14 00:45:54;;;;;;;3.83;3.00;;;;;;;11.05;64.77;94268.47;570417;26;880;-69
2024/04/14 00:46:09;;;;;;;3.67;2.90;;;;;;;11.05;64.87;94266.47;566519;26;1186;-70
2024/04/14 00:46:25;;;;;;;3.42;3.08;;;;;;;11.07;64.71;94263.91;570483;26;1110;-69
2024/04/14 00:46:41;;;;;;;3.60;3.00;;;;;;;11.08;64.80;94262.66;570216;26;892;-69
2024/04/14 00:46:56;;;;;;;3.33;2.95;;;;;;;11.03;64.99;94263.50;567079;26;2024;-69
2024/04/14 00:47:12;;;;;;;3.53;2.90;;;;;;;10.95;65.40;94265.41;569628;26;1032;-69
2024/04/14 00:47:27;;;;;;;3.55;2.78;;;;;;;10.93;65.33;94262.44;567671;26;989;-69
2024/04/14 00:47:43;;;;;;;3.97;2.90;;;;;;;10.94;65.70;94265.94;568140;26;924;-69
2024/04/14 00:47:58;;;;;;;4.20;2.83;;;;;;;10.94;65.64;94260.41;567281;26;1278;-69
2024/04/14 00:48:14;;;;;;;4.18;3.00;;;;;;;10.91;65.47;94261.47;568133;26;1286;-69
2024/04/14 00:48:29;;;;;;;3.70;3.03;;;;;;;10.85;65.46;94263.63;567210;26;1731;-69
2024/04/14 00:48:45;;;;;;;3.78;2.70;;;;;;;10.82;65.90;94267.44;568494;26;940;-70
2024/04/14 00:49:02;;;;;;;4.03;3.03;;;;;;;10.66;66.06;94253.41;569667;26;896;-69
2024/04/14 00:49:18;;;;;;;4.00;3.00;;;;;;;10.78;66.11;94273.28;565199;26;1129;-69
2024/04/14 00:49:35;;;;;;;3.55;2.60;;;;;;;10.78;66.12;94264.25;560505;26;1988;-69
2024/04/14 00:49:51;;;;;;;2.97;2.63;;;;;;;10.78;66.20;94265.00;561226;26;1147;-70
2024/04/14 00:50:07;;;;;;;5.70;3.10;;;;;;;10.78;66.25;94267.00;561982;26;1417;-69
2024/04/14 00:50:23;;;;;;;5.85;3.13;;;;;;;10.81;66.20;94265.94;562706;26;997;-69
2024/04/14 00:50:40;;;;;;;4.18;3.15;;;;;;;10.82;66.11;94264.66;562712;26;952;-69
2024/04/14 00:50:55;;;;;;;3.38;3.03;;;;;;;10.86;65.96;94267.84;562883;26;1647;-70
2024/04/14 00:51:11;;;;;;;4.30;3.07;;;;;;;10.87;66.02;94269.34;561097;26;953;-69
2024/04/14 00:51:26;;;;;;;6.13;3.22;;;;;;;10.88;66.02;94257.00;564362;26;911;-69
2024/04/14 00:51:42;;;;;;;5.13;3.00;;;;;;;10.86;65.96;94262.31;562540;26;1307;-69
2024/04/14 00:52:02;;;;;;;3.33;3.00;;;;;;;10.83;65.95;94266.16;562816;26;910;-70
2024/04/14 00:52:17;;;;;;;3.47;3.17;;;;;;;10.80;66.40;94264.47;560168;26;2008;-70
2024/04/14 00:52:33;;;;;;;3.57;3.27;;;;;;;10.81;66.69;94268.69;558980;26;1895;-69
2024/04/14 00:52:49;;;;;;;4.00;3.60;;;;;;;10.75;66.86;94263.28;557925;26;1024;-69
2024/04/14 00:53:04;;;;;;;4.05;3.65;;;;;;;10.72;67.06;94264.34;557728;26;862;-69
2024/04/14 00:53:21;;;;;;;3.90;3.30;;;;;;;10.71;66.97;94262.09;559829;26;1166;-69
2024/04/14 00:53:37;;;;;;;4.38;3.25;;;;;;;10.72;66.98;94266.38;559054;26;1867;-69
2024/04/14 00:53:52;;;;;;;3.58;3.20;;;;;;;10.73;66.75;94267.84;562506;26;943;-69
2024/04/14 00:54:08;;;;;;;3.50;3.20;;;;;;;10.75;66.78;94262.53;559935;26;1455;-69
2024/04/14 00:54:24;;;;;;;3.33;3.03;;;;;;;10.77;66.93;94271.03;558922;26;1223;-69
2024/04/14 00:54:40;;;;;;;3.47;3.15;;;;;;;10.80;66.51;94269.97;562057;26;898;-69
2024/04/14 00:54:55;;;;;;;3.65;3.30;;;;;;;10.82;66.95;94267.44;560370;26;1775;-69
2024/04/14 00:55:12;;;;;;;3.40;3.10;;;;;;;10.84;66.69;94268.38;561768;26;948;-69
2024/04/14 00:55:28;;;;;;;4.72;3.15;;;;;;;10.83;66.53;94257.88;559896;26;961;-69
2024/04/14 00:55:44;;;;;;;5.15;3.30;;;;;;;10.88;66.57;94265.31;560371;26;1551;-68
2024/04/14 00:56:00;;;;;;;3.85;3.28;;;;;;;10.88;66.56;94260.53;559976;26;920;-69
2024/04/14 00:56:15;;;;;;;3.63;2.95;;;;;;;10.90;66.37;94266.25;559257;26;854;-69
2024/04/14 00:56:31;;;;;;;4.23;2.80;;;;;;;10.90;66.52;94260.72;560372;26;1169;-69
2024/04/14 00:56:47;;;;;;;4.43;3.10;;;;;;;10.92;66.35;94263.72;562417;26;921;-68
2024/04/14 00:57:06;;;;;;;3.42;3.13;;;;;;;10.93;66.51;94256.91;560246;26;881;-68
2024/04/14 00:57:22;;;;;;;4.65;3.33;;;;;;;10.93;66.04;94265.22;558514;26;1304;-68
2024/04/14 00:57:39;;;;;;;3.88;3.47;;;;;;;10.90;66.13;94255.22;555926;26;2131;-68
2024/04/14 00:57:56;;;;;;;3.60;3.30;;;;;;;10.92;66.23;94260.94;558775;26;914;-69
2024/04/14 00:58:12;;;;;;;3.63;3.20;;;;;;;10.94;65.89;94257.66;557133;26;1145;-69
2024/04/14 00:58:27;;;;;;;4.03;3.00;;;;;;;10.94;65.90;94260.41;555183;26;993;-68
2024/04/14 00:58:45;;;;;;;3.03;2.55;;;;;;;10.95;66.22;94259.91;557778;26;893;-69
2024/04/14 00:59:01;;;;;;;3.40;2.92;;;;;;;10.95;66.18;94256.38;558933;26;878;-69
2024/04/14 00:59:17;;;;;;;3.90;3.47;;;;;;;10.93;66.31;94261.69;557389;26;1778;-69
2024/04/14 00:59:33;;;;;;;3.92;3.60;;;;;;;10.88;66.43;94257.75;555070;26;931;-69
2024/04/14 00:59:49;;;;;;;3.80;3.47;;;;;;;10.82;66.35;94259.91;553941;26;1078;-70
2024/04/14 01:00:06;;;;;;;4.22;3.63;;;;;;;10.77;66.37;94255.22;555265;26;895;-68
2024/04/14 01:00:22;;;;;;;4.93;3.47;;;;;;;10.71;66.77;94260.09;555098;26;847;-68
2024/04/14 01:00:39;;;;;;;4.20;3.10;;;;;;;10.65;66.93;94264.97;551671;26;1088;-69
2024/04/14 01:00:54;;;;;;;4.07;2.83;;;;;;;10.61;67.10;94264.56;554667;26;1118;-69
2024/04/14 01:01:11;;;;;;;5.17;3.23;;;;;;;10.55;67.31;94258.38;551518;26;854;-68
2024/04/14 01:01:26;;;;;;;4.45;3.25;;;;;;;10.53;67.33;94258.16;549787;26;1175;-69
2024/04/14 01:01:42;;;;;;;4.70;3.40;;;;;;;10.48;67.16;94253.50;552258;26;1991;-69
2024/04/14 01:01:57;;;;;;;4.67;3.60;;;;;;;10.51;67.61;94253.16;555238;26;819;-69
2024/04/14 01:02:13;;;;;;;3.78;3.40;;;;;;;10.50;67.66;94254.44;555087;26;860;-70
2024/04/14 01:02:28;;;;;;;4.80;3.77;;;;;;;10.51;67.62;94255.94;556219;26;1422;-70
2024/04/14 01:02:45;;;;;;;5.43;3.63;;;;;;;10.53;67.66;94258.16;558183;26;898;-68
2024/04/14 01:03:00;;;;;;;4.30;3.58;;;;;;;10.53;67.81;94256.16;555138;26;1178;-68
2024/04/14 01:03:16;;;;;;;4.03;3.60;;;;;;;10.53;67.60;94253.38;556117;26;826;-68
2024/04/14 01:03:33;;;;;;;3.87;3.40;;;;;;;10.58;67.55;94257.31;558874;26;775;-68
2024/04/14 01:03:49;;;;;;;3.80;3.50;;;;;;;10.61;67.86;94259.75;559289;26;838;-68
2024/04/14 01:04:07;;;;;;;4.00;3.70;;;;;;;10.60;67.64;94254.78;558724;26;1473;-68
2024/04/14 01:04:23;;;;;;;3.75;3.45;;;;;;;10.59;67.57;94261.56;558998;26;997;-68
2024/04/14 01:04:38;;;;;;;3.83;3.42;;;;;;;10.59;67.65;94258.78;559832;26;1022;-68
2024/04/14 01:04:53;;;;;;;3.73;3.40;;;;;;;10.59;67.60;94259.53;560595;26;1876;-68
2024/04/14 01:05:09;;;;;;;5.43;3.53;;;;;;;10.60;67.65;94252.00;562093;26;860;-68
2024/04/14 01:05:25;;;;;;;5.80;3.63;;;;;;;10.44;67.93;94234.47;562687;26;1249;-68
2024/04/14 01:05:41;;;;;;;4.53;3.50;;;;;;;10.64;67.87;94255.19;562742;26;866;-68
2024/04/14 01:05:56;;;;;;;4.30;3.80;;;;;;;10.64;67.53;94258.72;562089;26;933;-70
2024/04/14 01:06:12;;;;;;;4.13;3.72;;;;;;;10.63;67.76;94256.47;559038;26;809;-69
2024/04/14 01:06:28;;;;;;;3.90;3.50;;;;;;;10.57;67.70;94253.81;558999;26;807;-69
2024/04/14 01:06:44;;;;;;;3.70;3.10;;;;;;;10.54;67.50;94257.66;560352;26;822;-69
2024/04/14 01:06:59;;;;;;;3.88;3.30;;;;;;;10.53;67.41;94256.16;562081;26;1152;-69
2024/04/14 01:07:14;;;;;;;3.70;3.40;;;;;;;10.49;67.62;94252.94;558950;26;894;-69
2024/04/14 01:07:31;;;;;;;3.63;3.33;;;;;;;10.48;67.58;94256.25;558145;26;1917;-69
2024/04/14 01:07:47;;;;;;;3.60;3.22;;;;;;;10.45;67.69;94255.28;558635;26;874;-69
2024/04/14 01:08:02;;;;;;;3.60;3.30;;;;;;;10.43;67.91;94254.31;558741;26;928;-70
2024/04/14 01:08:18;;;;;;;3.60;3.30;;;;;;;10.40;67.92;94253.34;555097;26;917;-69
2024/04/14 01:08:33;;;;;;;3.23;2.97;;;;;;;10.38;67.41;94250.38;554894;26;1185;-69
2024/04/14 01:08:49;;;;;;;4.03;3.00;;;;;;;10.36;67.53;94258.44;551577;26;931;-69
2024/04/14 01:09:04;;;;;;;4.60;3.25;;;;;;;10.36;67.88;94258.44;548866;26;819;-70
2024/04/14 01:09:20;;;;;;;3.70;3.28;;;;;;;10.37;67.89;94251.66;551583;26;851;-69
2024/04/14 01:09:35;;;;;;;3.73;3.43;;;;;;;10.39;67.85;94256.66;548373;26;889;-69
2024/04/14 01:09:51;;;;;;;4.05;3.65;;;;;;;10.40;67.76;94256.13;551520;26;824;-69
2024/04/14 01:10:08;;;;;;;3.70;3.33;;;;;;;10.32;67.78;94238.69;548317;26;1147;-69
2024/04/14 01:10:23;;;;;;;3.58;3.28;;;;;;;10.42;67.67;94250.81;547470;27;890;-69
2024/04/14 01:10:40;;;;;;;3.83;3.40;;;;;;;10.44;67.52;94255.78;548465;26;1565;-69
2024/04/14 01:10:55;;;;;;;3.65;3.30;;;;;;;10.44;67.55;94250.28;549044;26;962;-70
2024/04/14 01:11:11;;;;;;;3.70;3.30;;;;;;;10.32;67.27;94238.69;551702;26;788;-69
2024/04/14 01:11:26;;;;;;;3.70;3.33;;;;;;;10.45;67.59;94251.78;552383;26;2071;-69
2024/04/14 01:11:42;;;;;;;3.70;3.40;;;;;;;10.46;67.21;94251.25;555034;26;1121;-69
2024/04/14 01:11:58;;;;;;;3.80;3.45;;;;;;;10.33;67.22;94228.41;556455;26;945;-69
2024/04/14 01:12:14;;;;;;;4.18;3.58;;;;;;;10.50;67.28;94253.72;560320;26;882;-69
2024/04/14 01:12:29;;;;;;;4.00;3.55;;;;;;;10.50;67.36;94248.91;562679;26;896;-69
2024/04/14 01:12:45;;;;;;;3.63;3.33;;;;;;;10.51;67.30;94255.94;562021;26;949;-69
2024/04/14 01:13:00;;;;;;;3.50;3.20;;;;;;;10.42;67.11;94245.28;559480;26;771;-69
2024/04/14 01:13:16;;;;;;;3.50;3.20;;;;;;;10.54;67.23;94252.13;559319;26;797;-69
2024/04/14 01:13:31;;;;;;;3.67;3.38;;;;;;;10.57;67.19;94261.34;559910;26;1853;-69
2024/04/14 01:13:47;;;;;;;3.70;3.30;;;;;;;10.58;66.88;94254.56;561545;26;782;-69
2024/04/14 01:14:07;;;;;;;4.55;3.28;;;;;;;10.60;67.01;94252.75;563148;26;806;-69
2024/04/14 01:14:22;;;;;;;4.68;3.35;;;;;;;10.61;67.18;94257.00;563111;26;949;-69
2024/04/14 01:14:38;;;;;;;3.90;3.30;;;;;;;10.61;67.03;94257.00;562657;26;979;-69
2024/04/14 01:14:53;;;;;;;4.03;3.55;;;;;;;10.61;67.01;94257.00;559803;26;1879;-69
2024/04/14 01:15:09;;;;;;;4.10;3.70;;;;;;;10.61;66.93;94259.75;560580;26;1227;-70
2024/04/14 01:15:24;;;;;;;3.97;3.50;;;;;;;10.58;66.63;94252.53;560453;26;913;-69
2024/04/14 01:15:40;;;;;;;3.83;3.42;;;;;;;10.56;66.98;94255.09;562865;26;823;-69
2024/04/14 01:15:55;;;;;;;3.60;3.30;;;;;;;10.57;67.08;94256.56;561680;26;1058;-69
2024/04/14 01:16:11;;;;;;;3.57;3.27;;;;;;;10.59;67.13;94253.28;558928;26;941;-69
2024/04/14 01:16:28;;;;;;;3.57;3.27;;;;;;;10.59;67.07;94258.78;559167;26;830;-69
2024/04/14 01:16:43;;;;;;;3.78;3.33;;;;;;;10.59;66.92;94253.28;560877;26;1204;-69
2024/04/14 01:16:58;;;;;;;4.68;3.65;;;;;;;10.58;66.86;94255.31;562112;26;843;-69